createdAt,value
2022-08-05T00:00:12.786Z,1016.06
2022-08-05T00:01:20.774Z,1015.95
2022-08-05T00:02:12.877Z,1015.88
2022-08-05T00:03:15.629Z,1015.77
2022-08-05T00:04:13.511Z,1015.76
2022-08-05T00:06:02.011Z,1015.70
2022-08-05T00:06:29.071Z,1015.68
2022-08-05T00:07:58.729Z,1015.71
2022-08-05T00:08:33.074Z,1015.68
2022-08-05T00:09:15.791Z,1015.63
2022-08-05T00:10:12.821Z,1015.60
2022-08-05T00:11:20.683Z,1015.53
2022-08-05T00:12:13.299Z,1015.51
2022-08-05T00:13:18.736Z,1015.53
2022-08-05T00:14:17.042Z,1015.50
2022-08-05T00:15:56.412Z,1015.54
2022-08-05T00:16:12.948Z,1015.53
2022-08-05T00:17:28.670Z,1015.52
2022-08-05T00:18:21.632Z,1015.53
2022-08-05T00:19:12.981Z,1015.52
2022-08-05T00:20:12.695Z,1015.49
2022-08-05T00:21:14.546Z,1015.44
2022-08-05T00:22:12.943Z,1015.36
2022-08-05T00:23:13.292Z,1015.21
2022-08-05T00:24:19.341Z,1015.18
2022-08-05T00:25:12.767Z,1015.16
2022-08-05T00:26:12.447Z,1015.20
2022-08-05T00:27:16.665Z,1015.23
2022-08-05T00:28:12.707Z,1015.28
2022-08-05T00:29:12.389Z,1015.28
2022-08-05T00:30:12.440Z,1015.29
2022-08-05T00:31:12.384Z,1015.27
2022-08-05T00:32:15.260Z,1015.28
2022-08-05T00:34:41.894Z,1015.30
2022-08-05T00:35:03.688Z,1015.31
2022-08-05T00:35:12.334Z,1015.28
2022-08-05T00:36:15.056Z,1015.26
2022-08-05T00:37:14.304Z,1015.27
2022-08-05T00:38:12.312Z,1015.22
2022-08-05T00:39:13.837Z,1015.16
2022-08-05T00:40:12.274Z,1015.17
2022-08-05T00:41:12.264Z,1015.16
2022-08-05T00:42:12.290Z,1015.14
2022-08-05T00:43:12.259Z,1015.09
2022-08-05T00:44:12.279Z,1015.07
2022-08-05T00:45:13.590Z,1015.05
2022-08-05T00:46:12.225Z,1014.98
2022-08-05T00:47:12.205Z,1014.98
2022-08-05T00:48:12.237Z,1014.99
2022-08-05T00:49:14.037Z,1015.07
2022-08-05T00:50:12.160Z,1015.12
2022-08-05T00:51:50.318Z,1015.10
2022-08-05T00:52:12.233Z,1015.07
2022-08-05T00:54:00.440Z,1015.05
2022-08-05T00:54:12.182Z,1014.98
2022-08-05T00:55:12.116Z,1014.97
2022-08-05T00:56:12.147Z,1014.95
2022-08-05T00:57:12.082Z,1014.96
2022-08-05T00:58:12.118Z,1014.94
2022-08-05T00:59:12.064Z,1014.93
2022-08-05T01:00:13.255Z,1014.87
2022-08-05T01:01:12.083Z,1014.82
2022-08-05T01:02:12.041Z,1014.87
2022-08-05T01:03:22.295Z,1014.87
2022-08-05T01:04:14.194Z,1014.84
2022-08-05T01:05:12.006Z,1014.88
2022-08-05T01:06:15.325Z,1014.88
2022-08-05T01:07:13.603Z,1014.86
2022-08-05T01:08:42.059Z,1014.81
2022-08-05T01:09:11.987Z,1014.70
2022-08-05T01:10:11.946Z,1014.67
2022-08-05T01:11:11.928Z,1014.60
2022-08-05T01:12:18.393Z,1014.60
2022-08-05T01:13:13.296Z,1014.57
2022-08-05T01:14:11.901Z,1014.54
2022-08-05T01:15:34.958Z,1014.46
2022-08-05T01:16:12.917Z,1014.44
2022-08-05T01:17:11.862Z,1014.47
2022-08-05T01:18:11.918Z,1014.43
2022-08-05T01:19:11.848Z,1014.43
2022-08-05T01:20:12.358Z,1014.38
2022-08-05T01:21:12.060Z,1014.34
2022-08-05T01:22:18.667Z,1014.30
2022-08-05T01:23:14.333Z,1014.25
2022-08-05T01:24:14.356Z,1014.22
2022-08-05T01:25:11.814Z,1014.23
2022-08-05T01:26:11.779Z,1014.20
2022-08-05T01:27:17.707Z,1014.27
2022-08-05T01:28:11.892Z,1014.25
2022-08-05T01:29:11.755Z,1014.24
2022-08-05T01:30:12.406Z,1014.33
2022-08-05T01:31:13.077Z,1014.27
2022-08-05T01:32:18.330Z,1014.30
2022-08-05T01:33:11.914Z,1014.19
2022-08-05T01:34:11.932Z,1014.20
2022-08-05T01:35:12.099Z,1014.19
2022-08-05T01:36:12.843Z,1014.16
2022-08-05T01:37:24.459Z,1014.20
2022-08-05T01:38:14.583Z,1014.23
2022-08-05T01:39:11.721Z,1014.13
2022-08-05T01:40:11.618Z,1014.11
2022-08-05T01:41:11.936Z,1014.07
2022-08-05T01:42:11.947Z,1014.09
2022-08-05T01:43:22.203Z,1014.01
2022-08-05T01:44:11.766Z,1013.98
2022-08-05T01:45:11.582Z,1014.00
2022-08-05T01:46:16.397Z,1014.08
2022-08-05T01:47:11.557Z,1014.14
2022-08-05T01:48:11.569Z,1014.20
2022-08-05T01:49:12.146Z,1014.16
2022-08-05T01:50:15.283Z,1014.21
2022-08-05T01:51:12.474Z,1014.16
2022-08-05T01:52:12.403Z,1014.07
2022-08-05T01:53:11.484Z,1014.11
2022-08-05T01:54:11.492Z,1014.18
2022-08-05T01:55:11.461Z,1014.21
2022-08-05T01:56:11.439Z,1014.25
2022-08-05T01:58:12.659Z,1014.16
2022-08-05T01:58:29.356Z,1014.15
2022-08-05T01:59:11.400Z,1014.16
2022-08-05T02:00:11.880Z,1014.18
2022-08-05T02:01:11.368Z,1014.26
2022-08-05T02:02:11.384Z,1014.27
2022-08-05T02:03:24.066Z,1014.29
2022-08-05T02:04:11.376Z,1014.40
2022-08-05T02:05:11.706Z,1014.43
2022-08-05T02:06:33.328Z,1014.43
2022-08-05T02:07:11.333Z,1014.54
2022-08-05T02:08:11.432Z,1014.58
2022-08-05T02:09:11.309Z,1014.65
2022-08-05T02:10:11.332Z,1014.68
2022-08-05T02:11:11.766Z,1014.70
2022-08-05T02:12:11.352Z,1014.69
2022-08-05T02:13:15.732Z,1014.63
2022-08-05T02:14:12.639Z,1014.61
2022-08-05T02:15:12.439Z,1014.66
2022-08-05T02:16:16.291Z,1014.63
2022-08-05T02:17:29.752Z,1014.63
2022-08-05T02:18:35.157Z,1014.76
2022-08-05T02:19:11.253Z,1014.70
2022-08-05T02:20:11.220Z,1014.68
2022-08-05T02:21:14.706Z,1014.60
2022-08-05T02:22:11.162Z,1014.63
2022-08-05T02:23:11.165Z,1014.68
2022-08-05T02:24:11.177Z,1014.64
2022-08-05T02:25:12.541Z,1014.64
2022-08-05T02:26:11.746Z,1014.62
2022-08-05T02:27:11.108Z,1014.56
2022-08-05T02:28:11.077Z,1014.55
2022-08-05T02:29:21.545Z,1014.54
2022-08-05T02:30:11.212Z,1014.53
2022-08-05T02:31:14.648Z,1014.54
2022-08-05T02:32:11.031Z,1014.50
2022-08-05T02:33:11.027Z,1014.52
2022-08-05T02:34:11.010Z,1014.57
2022-08-05T02:35:14.214Z,1014.60
2022-08-05T02:36:13.376Z,1014.69
2022-08-05T02:37:10.965Z,1014.79
2022-08-05T02:38:10.967Z,1014.80
2022-08-05T02:39:10.997Z,1014.85
2022-08-05T02:40:10.935Z,1014.82
2022-08-05T02:41:17.040Z,1014.84
2022-08-05T02:42:10.986Z,1014.81
2022-08-05T02:43:10.933Z,1014.87
2022-08-05T02:44:11.246Z,1014.90
2022-08-05T02:45:10.943Z,1014.91
2022-08-05T02:46:10.873Z,1014.97
2022-08-05T02:47:10.880Z,1015.03
2022-08-05T02:48:12.601Z,1014.99
2022-08-05T02:49:11.221Z,1014.95
2022-08-05T02:50:10.828Z,1014.92
2022-08-05T02:51:10.822Z,1014.91
2022-08-05T02:52:11.652Z,1014.93
2022-08-05T02:53:11.678Z,1014.88
2022-08-05T02:54:10.887Z,1014.89
2022-08-05T02:55:12.275Z,1014.86
2022-08-05T02:56:10.763Z,1014.80
2022-08-05T02:58:11.119Z,1014.75
2022-08-05T02:58:17.434Z,1014.80
2022-08-05T02:59:10.734Z,1014.80
2022-08-05T03:00:10.784Z,1014.78
2022-08-05T03:01:10.788Z,1014.75
2022-08-05T03:02:11.535Z,1014.71
2022-08-05T03:03:10.675Z,1014.65
2022-08-05T03:04:14.138Z,1014.70
2022-08-05T03:05:10.693Z,1014.65
2022-08-05T03:06:53.645Z,1014.71
2022-08-05T03:07:24.601Z,1014.67
2022-08-05T03:08:11.082Z,1014.68
2022-08-05T03:09:10.610Z,1014.68
2022-08-05T03:10:10.618Z,1014.70
2022-08-05T03:11:56.337Z,1014.66
2022-08-05T03:12:10.629Z,1014.72
2022-08-05T03:13:52.004Z,1014.83
2022-08-05T03:14:46.054Z,1014.77
2022-08-05T03:15:41.798Z,1014.81
2022-08-05T03:16:41.797Z,1014.85
2022-08-05T03:17:44.875Z,1014.87
2022-08-05T03:18:42.048Z,1014.84
2022-08-05T03:19:42.337Z,1014.85
2022-08-05T03:20:44.645Z,1014.83
2022-08-05T03:21:48.794Z,1014.81
2022-08-05T03:22:44.245Z,1014.82
2022-08-05T03:23:41.760Z,1014.79
2022-08-05T03:24:41.732Z,1014.79
2022-08-05T03:26:04.725Z,1014.78
2022-08-05T03:26:41.686Z,1014.75
2022-08-05T03:28:00.023Z,1014.79
2022-08-05T03:28:41.672Z,1014.75
2022-08-05T03:29:45.681Z,1014.78
2022-08-05T03:30:42.292Z,1014.82
2022-08-05T03:31:56.591Z,1014.82
2022-08-05T03:32:41.614Z,1014.80
2022-08-05T03:33:49.377Z,1014.78
2022-08-05T03:34:41.590Z,1014.78
2022-08-05T03:35:42.031Z,1014.80
2022-08-05T03:36:41.568Z,1014.79
2022-08-05T03:37:46.097Z,1014.80
2022-08-05T03:38:41.578Z,1014.87
2022-08-05T03:39:57.741Z,1014.93
2022-08-05T03:40:41.712Z,1014.99
2022-08-05T03:41:46.673Z,1014.99
2022-08-05T03:42:41.800Z,1014.97
2022-08-05T03:44:09.024Z,1015.00
2022-08-05T03:44:42.251Z,1014.97
2022-08-05T03:45:58.365Z,1015.04
2022-08-05T03:46:41.456Z,1015.01
2022-08-05T03:47:42.018Z,1015.08
2022-08-05T03:48:41.466Z,1015.09
2022-08-05T03:49:51.499Z,1015.08
2022-08-05T03:50:41.413Z,1015.06
2022-08-05T03:52:48.332Z,1015.03
2022-08-05T03:56:04.809Z,1015.02
2022-08-05T03:56:17.318Z,1015.07
2022-08-05T03:56:35.162Z,1015.14
2022-08-05T03:57:41.552Z,1015.12
2022-08-05T03:58:28.890Z,1015.07
2022-08-05T03:59:24.625Z,1015.03
2022-08-05T04:00:24.388Z,1015.06
2022-08-05T04:01:24.561Z,1014.98
2022-08-05T04:02:37.876Z,1014.93
2022-08-05T04:03:28.917Z,1014.91
2022-08-05T04:04:26.496Z,1014.92
2022-08-05T04:05:24.283Z,1014.88
2022-08-05T04:06:24.345Z,1014.89
2022-08-05T04:07:25.467Z,1014.90
2022-08-05T04:08:35.011Z,1014.80
2022-08-05T04:09:26.364Z,1014.78
2022-08-05T04:10:24.247Z,1014.76
2022-08-05T04:11:24.215Z,1014.80
2022-08-05T04:12:24.802Z,1014.84
2022-08-05T04:13:24.214Z,1014.91
2022-08-05T04:14:30.035Z,1014.98
2022-08-05T04:15:24.523Z,1015.03
2022-08-05T04:16:25.494Z,1014.92
2022-08-05T04:17:24.329Z,1014.95
2022-08-05T04:18:25.501Z,1014.92
2022-08-05T04:19:24.147Z,1014.95
2022-08-05T04:20:24.158Z,1014.98
2022-08-05T04:22:09.469Z,1014.95
2022-08-05T04:22:24.119Z,1014.96
2022-08-05T04:23:57.221Z,1014.98
2022-08-05T04:24:24.114Z,1014.99
2022-08-05T04:25:56.577Z,1015.04
2022-08-05T04:26:24.773Z,1015.05
2022-08-05T04:27:33.059Z,1015.03
2022-08-05T04:28:30.562Z,1015.04
2022-08-05T04:29:24.016Z,1015.05
2022-08-05T04:30:24.109Z,1015.09
2022-08-05T04:31:24.062Z,1015.10
2022-08-05T04:32:30.859Z,1015.12
2022-08-05T04:34:17.713Z,1015.11
2022-08-05T04:34:32.733Z,1015.14
2022-08-05T04:35:23.979Z,1015.13
2022-08-05T04:36:45.729Z,1015.09
2022-08-05T04:37:31.566Z,1015.08
2022-08-05T04:38:39.429Z,1015.11
2022-08-05T04:39:23.998Z,1015.09
2022-08-05T04:40:23.902Z,1015.04
2022-08-05T04:41:34.070Z,1015.05
2022-08-05T04:42:25.470Z,1015.02
2022-08-05T04:43:23.887Z,1014.99
2022-08-05T04:44:29.874Z,1014.95
2022-08-05T04:45:47.802Z,1014.96
2022-08-05T04:46:27.783Z,1014.94
2022-08-05T04:47:24.046Z,1014.99
2022-08-05T04:48:27.364Z,1014.97
2022-08-05T04:49:24.760Z,1015.04
2022-08-05T04:50:34.315Z,1015.04
2022-08-05T04:51:23.789Z,1015.03
2022-08-05T04:52:23.780Z,1015.02
2022-08-05T04:53:23.757Z,1015.04
2022-08-05T04:54:23.781Z,1015.01
2022-08-05T04:56:15.147Z,1014.96
2022-08-05T04:56:37.551Z,1014.94
2022-08-05T04:57:24.039Z,1015.01
2022-08-05T04:58:23.730Z,1015.02
2022-08-05T04:59:38.349Z,1015.00
2022-08-05T05:00:23.932Z,1015.06
2022-08-05T05:02:06.302Z,1015.03
2022-08-05T05:02:37.433Z,1014.99
2022-08-05T05:03:23.659Z,1015.04
2022-08-05T05:04:23.625Z,1015.03
2022-08-05T05:05:28.142Z,1015.02
2022-08-05T05:06:40.636Z,1015.02
2022-08-05T05:07:23.962Z,1015.04
2022-08-05T05:08:30.152Z,1015.05
2022-08-05T05:09:23.616Z,1015.04
2022-08-05T05:10:23.561Z,1014.99
2022-08-05T05:11:23.547Z,1015.02
2022-08-05T05:12:23.604Z,1015.01
2022-08-05T05:13:24.371Z,1015.01
2022-08-05T05:14:28.080Z,1015.02
2022-08-05T05:15:56.632Z,1015.03
2022-08-05T05:16:23.504Z,1015.04
2022-08-05T05:17:24.877Z,1015.04
2022-08-05T05:18:31.626Z,1015.08
2022-08-05T05:19:27.279Z,1015.13
2022-08-05T05:20:23.856Z,1015.11
2022-08-05T05:21:23.453Z,1015.13
2022-08-05T05:22:26.450Z,1015.07
2022-08-05T05:23:23.434Z,1015.07
2022-08-05T05:24:23.439Z,1015.08
2022-08-05T05:25:32.606Z,1015.08
2022-08-05T05:26:28.805Z,1015.07
2022-08-05T05:27:23.654Z,1015.13
2022-08-05T05:28:23.359Z,1015.14
2022-08-05T05:30:03.604Z,1015.14
2022-08-05T05:30:31.397Z,1015.17
2022-08-05T05:31:35.744Z,1015.23
2022-08-05T05:32:22.314Z,1015.18
2022-08-05T05:33:23.728Z,1015.21
2022-08-05T05:34:27.051Z,1015.23
2022-08-05T05:35:23.350Z,1015.22
2022-08-05T05:36:23.428Z,1015.28
2022-08-05T05:37:23.518Z,1015.30
2022-08-05T05:38:27.494Z,1015.28
2022-08-05T05:39:23.326Z,1015.31
2022-08-05T05:40:23.224Z,1015.24
2022-08-05T05:41:23.747Z,1015.27
2022-08-05T05:42:23.225Z,1015.30
2022-08-05T05:43:57.246Z,1015.30
2022-08-05T05:44:36.443Z,1015.29
2022-08-05T05:45:23.182Z,1015.28
2022-08-05T05:46:23.157Z,1015.35
2022-08-05T05:47:23.248Z,1015.34
2022-08-05T05:48:27.414Z,1015.31
2022-08-05T05:49:23.441Z,1015.28
2022-08-05T05:50:23.105Z,1015.22
2022-08-05T05:51:23.508Z,1015.24
2022-08-05T05:52:28.592Z,1015.24
2022-08-05T05:53:23.379Z,1015.22
2022-08-05T05:54:49.639Z,1015.18
2022-08-05T05:55:23.091Z,1015.27
2022-08-05T05:56:31.374Z,1015.22
2022-08-05T05:57:23.114Z,1015.11
2022-08-05T05:58:23.028Z,1015.09
2022-08-05T05:59:23.107Z,1015.08
2022-08-05T06:00:27.787Z,1015.04
2022-08-05T06:01:23.396Z,1015.10
2022-08-05T06:02:32.814Z,1015.11
2022-08-05T06:03:54.144Z,1015.13
2022-08-05T06:04:22.993Z,1015.12
2022-08-05T06:05:23.069Z,1015.17
2022-08-05T06:06:22.961Z,1015.19
2022-08-05T06:07:23.192Z,1015.18
2022-08-05T06:08:31.672Z,1015.16
2022-08-05T06:09:24.771Z,1015.15
2022-08-05T06:10:22.889Z,1015.13
2022-08-05T06:11:22.928Z,1015.15
2022-08-05T06:12:22.905Z,1015.14
2022-08-05T06:13:22.871Z,1015.16
2022-08-05T06:14:22.912Z,1015.20
2022-08-05T06:15:24.251Z,1015.14
2022-08-05T06:16:28.358Z,1015.22
2022-08-05T06:17:24.661Z,1015.18
2022-08-05T06:18:30.783Z,1015.25
2022-08-05T06:19:34.942Z,1015.22
2022-08-05T06:20:22.790Z,1015.27
2022-08-05T06:21:22.799Z,1015.22
2022-08-05T06:22:22.764Z,1015.18
2022-08-05T06:23:22.793Z,1015.16
2022-08-05T06:24:25.909Z,1015.13
2022-08-05T06:25:25.179Z,1015.15
2022-08-05T06:26:24.955Z,1015.05
2022-08-05T06:28:12.138Z,1015.06
2022-08-05T06:28:28.550Z,1015.11
2022-08-05T06:29:45.454Z,1015.07
2022-08-05T06:30:22.724Z,1015.04
2022-08-05T06:31:22.705Z,1015.01
2022-08-05T06:32:25.874Z,1015.05
2022-08-05T06:33:33.346Z,1015.01
2022-08-05T06:34:22.663Z,1015.01
2022-08-05T06:36:07.720Z,1015.05
2022-08-05T06:36:25.974Z,1015.06
2022-08-05T06:37:55.969Z,1015.12
2022-08-05T06:38:36.134Z,1015.11
2022-08-05T06:39:26.919Z,1015.14
2022-08-05T06:40:27.971Z,1015.13
2022-08-05T06:41:22.565Z,1015.14
2022-08-05T06:42:22.564Z,1015.18
2022-08-05T06:43:57.249Z,1015.22
2022-08-05T06:44:22.621Z,1015.18
2022-08-05T06:45:44.413Z,1015.11
2022-08-05T06:46:22.673Z,1015.13
2022-08-05T06:48:11.506Z,1015.10
2022-08-05T06:48:58.530Z,1015.06
2022-08-05T06:50:00.495Z,1015.08
2022-08-05T06:50:22.467Z,1015.06
2022-08-05T06:51:29.340Z,1015.14
2022-08-05T06:52:37.391Z,1015.15
2022-08-05T06:53:27.959Z,1015.10
2022-08-05T06:54:25.794Z,1015.16
2022-08-05T06:55:22.390Z,1015.21
2022-08-05T06:56:26.112Z,1015.20
2022-08-05T06:57:57.403Z,1015.17
2022-08-05T06:58:34.899Z,1015.25
2022-08-05T06:59:22.388Z,1015.23
2022-08-05T07:00:24.973Z,1015.23
2022-08-05T07:01:22.683Z,1015.17
2022-08-05T07:02:22.748Z,1015.16
2022-08-05T07:03:22.320Z,1015.18
2022-08-05T07:04:22.330Z,1015.21
2022-08-05T07:05:31.922Z,1015.20
2022-08-05T07:06:22.272Z,1015.17
2022-08-05T07:07:35.229Z,1015.17
2022-08-05T07:08:22.287Z,1015.18
2022-08-05T07:09:24.938Z,1015.19
2022-08-05T07:10:22.307Z,1015.18
2022-08-05T07:11:25.212Z,1015.21
2022-08-05T07:13:57.597Z,1015.25
2022-08-05T07:14:39.791Z,1015.28
2022-08-05T07:16:01.762Z,1015.30
2022-08-05T07:18:00.458Z,1015.33
2022-08-05T07:18:14.630Z,1015.33
2022-08-05T07:18:39.708Z,1015.37
2022-08-05T07:20:39.812Z,1015.37
2022-08-05T07:22:00.585Z,1015.40
2022-08-05T07:22:42.104Z,1015.35
2022-08-05T07:23:40.513Z,1015.38
2022-08-05T07:24:43.766Z,1015.35
2022-08-05T07:25:54.728Z,1015.34
2022-08-05T07:26:39.658Z,1015.37
2022-08-05T07:27:56.441Z,1015.36
2022-08-05T07:28:39.600Z,1015.32
2022-08-05T07:30:24.366Z,1015.41
2022-08-05T07:30:40.056Z,1015.44
2022-08-05T07:31:53.934Z,1015.43
2022-08-05T07:32:39.618Z,1015.46
2022-08-05T07:33:39.627Z,1015.46
2022-08-05T07:34:42.298Z,1015.45
2022-08-05T07:35:39.844Z,1015.47
2022-08-05T07:36:39.961Z,1015.43
2022-08-05T07:37:39.870Z,1015.44
2022-08-05T07:38:42.803Z,1015.45
2022-08-05T07:40:27.111Z,1015.49
2022-08-05T07:40:39.630Z,1015.49
2022-08-05T07:42:14.782Z,1015.48
2022-08-05T07:42:39.502Z,1015.50
2022-08-05T07:43:39.502Z,1015.53
2022-08-05T07:44:39.497Z,1015.59
2022-08-05T07:45:57.201Z,1015.57
2022-08-05T07:46:39.412Z,1015.57
2022-08-05T07:47:42.265Z,1015.58
2022-08-05T07:49:01.549Z,1015.63
2022-08-05T07:49:43.542Z,1015.63
2022-08-05T07:50:39.448Z,1015.70
2022-08-05T07:51:41.110Z,1015.68
2022-08-05T07:52:39.340Z,1015.71
2022-08-05T07:53:50.448Z,1015.71
2022-08-05T07:54:41.376Z,1015.72
2022-08-05T07:55:44.195Z,1015.77
2022-08-05T07:57:13.690Z,1015.72
2022-08-05T07:57:56.230Z,1015.76
2022-08-05T07:58:57.593Z,1015.79
2022-08-05T07:59:40.963Z,1015.78
2022-08-05T08:00:39.284Z,1015.78
2022-08-05T08:01:41.653Z,1015.75
2022-08-05T08:03:14.907Z,1015.76
2022-08-05T08:03:44.341Z,1015.74
2022-08-05T08:04:39.345Z,1015.64
2022-08-05T08:05:39.578Z,1015.64
2022-08-05T08:06:39.228Z,1015.70
2022-08-05T08:08:00.100Z,1015.60
2022-08-05T08:08:39.198Z,1015.65
2022-08-05T08:09:39.173Z,1015.62
2022-08-05T08:10:39.215Z,1015.64
2022-08-05T08:11:49.452Z,1015.66
2022-08-05T08:12:49.556Z,1015.56
2022-08-05T08:13:49.258Z,1015.58
2022-08-05T08:14:39.135Z,1015.56
2022-08-05T08:16:50.351Z,1015.57
2022-08-05T08:16:56.251Z,1015.60
2022-08-05T08:17:39.104Z,1015.59
2022-08-05T08:18:39.128Z,1015.62
2022-08-05T08:20:44.540Z,1015.60
2022-08-05T08:21:09.852Z,1015.62
2022-08-05T08:21:39.012Z,1015.64
2022-08-05T08:22:39.018Z,1015.65
2022-08-05T08:24:02.683Z,1015.66
2022-08-05T08:24:51.002Z,1015.68
2022-08-05T08:26:00.373Z,1015.66
2022-08-05T08:26:39.023Z,1015.73
2022-08-05T08:27:45.265Z,1015.71
2022-08-05T08:28:58.997Z,1015.66
2022-08-05T08:30:05.880Z,1015.59
2022-08-05T08:30:47.952Z,1015.60
2022-08-05T08:31:38.975Z,1015.56
2022-08-05T08:32:39.835Z,1015.54
2022-08-05T08:33:38.864Z,1015.52
2022-08-05T08:34:39.080Z,1015.56
2022-08-05T08:35:41.554Z,1015.58
2022-08-05T08:36:47.728Z,1015.59
2022-08-05T08:37:38.854Z,1015.63
2022-08-05T08:38:38.894Z,1015.62
2022-08-05T08:39:49.472Z,1015.64
2022-08-05T08:40:38.797Z,1015.63
2022-08-05T08:41:52.412Z,1015.61
2022-08-05T08:42:50.361Z,1015.67
2022-08-05T08:45:19.858Z,1015.69
2022-08-05T08:45:30.800Z,1015.60
2022-08-05T08:45:38.730Z,1015.65
2022-08-05T08:46:38.708Z,1015.62
2022-08-05T08:48:07.648Z,1015.60
2022-08-05T08:49:03.287Z,1015.66
2022-08-05T08:50:13.096Z,1015.63
2022-08-05T08:51:04.108Z,1015.64
2022-08-05T08:52:13.940Z,1015.66
2022-08-05T08:52:38.665Z,1015.62
2022-08-05T08:53:40.251Z,1015.66
2022-08-05T08:54:38.652Z,1015.66
2022-08-05T08:56:03.653Z,1015.66
2022-08-05T08:56:39.648Z,1015.61
2022-08-05T08:57:48.251Z,1015.55
2022-08-05T08:58:44.632Z,1015.56
2022-08-05T08:59:38.576Z,1015.57
2022-08-05T09:00:38.607Z,1015.53
2022-08-05T09:01:42.600Z,1015.53
2022-08-05T09:02:38.582Z,1015.50
2022-08-05T09:03:40.327Z,1015.49
2022-08-05T09:04:58.280Z,1015.55
2022-08-05T09:06:07.826Z,1015.55
2022-08-05T09:06:38.568Z,1015.53
2022-08-05T09:07:53.530Z,1015.59
2022-08-05T09:08:40.424Z,1015.61
2022-08-05T09:09:38.454Z,1015.57
2022-08-05T09:10:38.452Z,1015.56
2022-08-05T09:11:52.169Z,1015.57
2022-08-05T09:12:38.460Z,1015.58
2022-08-05T09:14:09.588Z,1015.61
2022-08-05T09:15:06.338Z,1015.68
2022-08-05T09:15:38.389Z,1015.64
2022-08-05T09:16:38.371Z,1015.67
2022-08-05T09:17:42.576Z,1015.68
2022-08-05T09:18:42.809Z,1015.68
2022-08-05T09:20:01.748Z,1015.68
2022-08-05T09:20:38.480Z,1015.68
2022-08-05T09:22:22.972Z,1015.69
2022-08-05T09:22:38.632Z,1015.68
2022-08-05T09:23:43.704Z,1015.66
2022-08-05T09:24:38.297Z,1015.75
2022-08-05T09:26:01.629Z,1015.73
2022-08-05T09:26:38.317Z,1015.77
2022-08-05T09:28:03.983Z,1015.77
2022-08-05T09:28:38.260Z,1015.74
2022-08-05T09:29:47.736Z,1015.75
2022-08-05T09:30:38.300Z,1015.73
2022-08-05T09:32:42.352Z,1015.76
2022-08-05T09:32:52.785Z,1015.77
2022-08-05T09:33:38.239Z,1015.74
2022-08-05T09:34:38.171Z,1015.71
2022-08-05T09:35:38.205Z,1015.77
2022-08-05T09:36:38.183Z,1015.76
2022-08-05T09:38:12.105Z,1015.79
2022-08-05T09:38:38.160Z,1015.83
2022-08-05T09:39:44.796Z,1015.86
2022-08-05T09:40:38.121Z,1015.89
2022-08-05T09:41:39.011Z,1015.84
2022-08-05T09:42:38.085Z,1015.84
2022-08-05T09:43:40.578Z,1015.85
2022-08-05T09:44:38.106Z,1015.82
2022-08-05T09:46:07.339Z,1015.81
2022-08-05T09:46:38.058Z,1015.83
2022-08-05T09:47:55.431Z,1015.81
2022-08-05T09:48:38.043Z,1015.79
2022-08-05T09:49:40.500Z,1015.81
2022-08-05T09:50:44.545Z,1015.80
2022-08-05T09:51:37.981Z,1015.79
2022-08-05T09:52:44.812Z,1015.72
2022-08-05T09:53:54.656Z,1015.69
2022-08-05T09:54:37.980Z,1015.61
2022-08-05T09:55:56.562Z,1015.60
2022-08-05T09:56:38.044Z,1015.55
2022-08-05T09:57:39.537Z,1015.58
2022-08-05T09:58:37.909Z,1015.56
2022-08-05T09:59:38.656Z,1015.54
2022-08-05T10:00:37.927Z,1015.48
2022-08-05T10:01:39.586Z,1015.51
2022-08-05T10:02:38.564Z,1015.50
2022-08-05T10:03:56.992Z,1015.51
2022-08-05T10:04:38.313Z,1015.59
2022-08-05T10:05:38.818Z,1015.59
2022-08-05T10:06:37.811Z,1015.58
2022-08-05T10:08:10.594Z,1015.59
2022-08-05T10:08:42.516Z,1015.55
2022-08-05T10:09:44.883Z,1015.58
2022-08-05T10:10:37.815Z,1015.57
2022-08-05T10:11:38.087Z,1015.59
2022-08-05T10:12:38.051Z,1015.61
2022-08-05T10:13:45.800Z,1015.66
2022-08-05T10:14:37.758Z,1015.66
2022-08-05T10:15:37.771Z,1015.69
2022-08-05T10:16:52.223Z,1015.66
2022-08-05T10:17:40.724Z,1015.65
2022-08-05T10:18:37.681Z,1015.61
2022-08-05T10:20:03.533Z,1015.70
2022-08-05T10:20:37.735Z,1015.67
2022-08-05T10:21:40.331Z,1015.68
2022-08-05T10:22:38.039Z,1015.70
2022-08-05T10:23:55.829Z,1015.71
2022-08-05T10:24:39.814Z,1015.65
2022-08-05T10:25:37.586Z,1015.71
2022-08-05T10:26:37.648Z,1015.71
2022-08-05T10:28:13.381Z,1015.75
2022-08-05T10:28:37.695Z,1015.75
2022-08-05T10:30:06.403Z,1015.76
2022-08-05T10:32:50.554Z,1015.74
2022-08-05T10:33:05.261Z,1015.78
2022-08-05T10:33:14.746Z,1015.78
2022-08-05T10:34:14.338Z,1015.79
2022-08-05T10:35:14.330Z,1015.77
2022-08-05T10:36:14.430Z,1015.77
2022-08-05T10:37:14.338Z,1015.80
2022-08-05T10:38:14.401Z,1015.82
2022-08-05T10:39:15.264Z,1015.83
2022-08-05T10:40:18.530Z,1015.78
2022-08-05T10:41:14.334Z,1015.84
2022-08-05T10:42:14.370Z,1015.82
2022-08-05T10:43:14.281Z,1015.86
2022-08-05T10:44:14.340Z,1015.83
2022-08-05T10:45:23.711Z,1015.81
2022-08-05T10:46:14.220Z,1015.79
2022-08-05T10:47:26.517Z,1015.81
2022-08-05T10:48:31.822Z,1015.82
2022-08-05T10:49:16.902Z,1015.74
2022-08-05T10:50:28.047Z,1015.71
2022-08-05T10:51:22.474Z,1015.71
2022-08-05T10:52:14.158Z,1015.76
2022-08-05T10:53:14.171Z,1015.71
2022-08-05T10:54:28.668Z,1015.74
2022-08-05T10:55:16.008Z,1015.73
2022-08-05T10:56:21.250Z,1015.80
2022-08-05T10:57:14.096Z,1015.81
2022-08-05T10:58:15.561Z,1015.80
2022-08-05T11:00:03.480Z,1015.80
2022-08-05T11:00:19.105Z,1015.86
2022-08-05T11:01:15.116Z,1015.89
2022-08-05T11:02:37.948Z,1015.89
2022-08-05T11:03:24.529Z,1015.83
2022-08-05T11:04:14.012Z,1015.85
2022-08-05T11:05:18.171Z,1015.81
2022-08-05T11:06:17.898Z,1015.80
2022-08-05T11:07:13.975Z,1015.88
2022-08-05T11:08:36.746Z,1015.97
2022-08-05T11:09:16.829Z,1015.92
2022-08-05T11:10:14.000Z,1015.94
2022-08-05T11:11:16.833Z,1015.98
2022-08-05T11:12:13.918Z,1015.97
2022-08-05T11:13:14.086Z,1016.03
2022-08-05T11:14:14.214Z,1016.01
2022-08-05T11:15:20.302Z,1015.98
2022-08-05T11:16:13.951Z,1015.97
2022-08-05T11:17:57.056Z,1016.05
2022-08-05T11:18:14.089Z,1016.09
2022-08-05T11:20:10.082Z,1016.03
2022-08-05T11:20:18.546Z,1016.09
2022-08-05T11:21:13.811Z,1016.09
2022-08-05T11:22:13.964Z,1016.08
2022-08-05T11:23:13.822Z,1016.13
2022-08-05T11:24:14.748Z,1016.12
2022-08-05T11:26:03.332Z,1016.18
2022-08-05T11:26:13.844Z,1016.27
2022-08-05T11:27:13.764Z,1016.23
2022-08-05T11:28:17.113Z,1016.15
2022-08-05T11:29:14.423Z,1016.15
2022-08-05T11:30:13.749Z,1016.17
2022-08-05T11:31:19.545Z,1016.19
2022-08-05T11:32:13.770Z,1016.24
2022-08-05T11:33:21.240Z,1016.26
2022-08-05T11:34:14.869Z,1016.27
2022-08-05T11:35:15.521Z,1016.37
2022-08-05T11:36:13.774Z,1016.43
2022-08-05T11:38:29.692Z,1016.39
2022-08-05T11:38:45.992Z,1016.44
2022-08-05T11:39:13.784Z,1016.44
2022-08-05T11:40:14.295Z,1016.47
2022-08-05T11:41:58.035Z,1016.49
2022-08-05T11:42:18.388Z,1016.42
2022-08-05T11:43:13.598Z,1016.44
2022-08-05T11:44:40.463Z,1016.48
2022-08-05T11:45:14.329Z,1016.60
2022-08-05T11:46:27.075Z,1016.56
2022-08-05T11:47:17.384Z,1016.52
2022-08-05T11:48:13.576Z,1016.54
2022-08-05T11:49:13.486Z,1016.68
2022-08-05T11:50:15.155Z,1016.59
2022-08-05T11:51:13.529Z,1016.61
2022-08-05T11:52:13.471Z,1016.57
2022-08-05T11:53:13.476Z,1016.55
2022-08-05T11:54:13.925Z,1016.64
2022-08-05T11:55:13.508Z,1016.50
2022-08-05T11:56:13.588Z,1016.62
2022-08-05T11:57:25.259Z,1016.59
2022-08-05T11:58:13.555Z,1016.53
2022-08-05T11:59:13.858Z,1016.62
2022-08-05T12:00:13.414Z,1016.66
2022-08-05T12:01:13.359Z,1016.56
2022-08-05T12:02:30.740Z,1016.77
2022-08-05T12:03:13.458Z,1016.66
2022-08-05T12:04:13.681Z,1016.73
2022-08-05T12:05:18.279Z,1016.68
2022-08-05T12:06:13.384Z,1016.78
2022-08-05T12:07:13.292Z,1016.73
2022-08-05T12:08:18.060Z,1016.72
2022-08-05T12:09:19.982Z,1016.78
2022-08-05T12:10:13.492Z,1016.88